createdAt,value
2023-01-29T00:02:07.419Z,4.00
2023-01-29T00:04:35.544Z,4.00
2023-01-29T00:07:03.650Z,4.00
2023-01-29T00:09:32.262Z,4.00
2023-01-29T00:12:01.667Z,4.00
2023-01-29T00:14:29.675Z,4.00
2023-01-29T00:16:57.714Z,4.00
2023-01-29T00:19:25.672Z,4.00
2023-01-29T00:21:53.739Z,4.10
2023-01-29T00:24:22.580Z,4.00
2023-01-29T00:26:51.087Z,4.30
2023-01-29T00:29:21.900Z,4.00
2023-01-29T00:31:50.162Z,4.60
2023-01-29T00:34:18.427Z,4.00
2023-01-29T00:36:46.545Z,4.00
2023-01-29T00:39:14.570Z,4.40
2023-01-29T00:42:00.045Z,4.10
2023-01-29T00:44:46.769Z,4.00
2023-01-29T00:47:34.401Z,5.20
2023-01-29T00:50:03.260Z,4.10
2023-01-29T00:52:31.573Z,4.00
2023-01-29T00:55:01.343Z,4.00
2023-01-29T00:57:31.466Z,4.00
2023-01-29T01:00:01.158Z,4.00
2023-01-29T01:02:47.159Z,4.00
2023-01-29T01:05:20.034Z,4.00
2023-01-29T01:07:49.025Z,4.00
2023-01-29T01:10:22.282Z,4.00
2023-01-29T01:12:54.276Z,4.00
2023-01-29T01:15:25.320Z,4.00
2023-01-29T01:17:55.120Z,4.00
2023-01-29T01:20:23.396Z,4.00
2023-01-29T01:22:51.617Z,4.00
2023-01-29T01:25:19.880Z,4.00
2023-01-29T01:27:47.897Z,4.00
2023-01-29T01:30:17.638Z,4.00
2023-01-29T01:32:47.374Z,4.00
2023-01-29T01:35:15.760Z,4.00
2023-01-29T01:37:44.102Z,4.00
2023-01-29T01:40:18.042Z,4.30
2023-01-29T01:42:48.853Z,4.00
2023-01-29T01:45:21.504Z,4.00
2023-01-29T01:47:53.792Z,4.00
2023-01-29T01:50:28.255Z,4.80
2023-01-29T01:53:00.942Z,4.00
2023-01-29T01:55:31.276Z,4.00
2023-01-29T01:58:07.570Z,3.90
2023-01-29T02:00:35.730Z,4.00
2023-01-29T02:03:23.321Z,4.70
2023-01-29T02:06:09.719Z,4.00
2023-01-29T02:09:04.028Z,4.00
2023-01-29T02:11:32.289Z,4.00
2023-01-29T02:14:00.763Z,4.00
2023-01-29T02:16:28.752Z,4.00
2023-01-29T02:18:58.290Z,4.00
2023-01-29T02:21:44.010Z,4.00
2023-01-29T02:24:44.524Z,4.00
2023-01-29T02:27:16.603Z,4.00
2023-01-29T02:29:57.861Z,3.90
2023-01-29T02:32:32.508Z,4.00
2023-01-29T02:35:29.615Z,3.90
2023-01-29T02:38:10.762Z,4.00
2023-01-29T02:40:44.902Z,4.00
2023-01-29T02:43:25.244Z,3.90
2023-01-29T02:46:02.928Z,4.00
2023-01-29T02:48:40.767Z,3.90
2023-01-29T02:51:14.910Z,3.90
2023-01-29T02:53:50.730Z,4.50
2023-01-29T02:56:22.727Z,5.30
2023-01-29T02:58:55.484Z,3.90
2023-01-29T03:01:31.288Z,3.90
2023-01-29T03:04:04.412Z,4.10
2023-01-29T03:06:37.135Z,3.90
2023-01-29T03:09:08.962Z,3.90
2023-01-29T03:11:41.458Z,3.90
2023-01-29T03:14:14.262Z,3.90
2023-01-29T03:16:48.671Z,3.90
2023-01-29T03:19:20.372Z,3.90
2023-01-29T03:21:59.144Z,3.90
2023-01-29T03:24:53.066Z,3.90
2023-01-29T03:27:44.500Z,3.90
2023-01-29T03:30:35.056Z,3.90
2023-01-29T03:33:09.558Z,3.90
2023-01-29T03:35:41.195Z,3.90
2023-01-29T03:38:12.238Z,3.90
2023-01-29T03:40:48.765Z,3.90
2023-01-29T03:43:27.500Z,3.90
2023-01-29T03:46:04.784Z,4.10
2023-01-29T03:48:37.625Z,3.90
2023-01-29T03:51:17.598Z,3.90
2023-01-29T03:53:51.513Z,3.90
2023-01-29T03:56:34.192Z,3.90
2023-01-29T03:59:11.104Z,3.90
2023-01-29T04:01:47.597Z,3.90
2023-01-29T04:04:22.038Z,3.90
2023-01-29T04:06:53.167Z,3.90
2023-01-29T04:09:24.971Z,3.90
2023-01-29T04:11:58.276Z,3.90
2023-01-29T04:14:26.845Z,3.90
2023-01-29T04:16:58.820Z,3.90
2023-01-29T04:19:29.263Z,3.90
2023-01-29T04:22:04.919Z,3.90
2023-01-29T04:24:33.599Z,3.90
2023-01-29T04:27:12.258Z,4.00
2023-01-29T04:30:05.685Z,4.00
2023-01-29T04:32:42.257Z,4.00
2023-01-29T04:35:22.448Z,3.90
2023-01-29T04:38:02.765Z,4.00
2023-01-29T04:40:37.638Z,4.00
2023-01-29T04:43:10.044Z,4.60
2023-01-29T04:45:47.775Z,4.10
2023-01-29T04:48:22.464Z,4.00
2023-01-29T04:51:07.531Z,4.00
2023-01-29T04:53:43.702Z,4.00
2023-01-29T04:56:20.194Z,4.00
2023-01-29T04:58:53.294Z,4.00
2023-01-29T05:01:25.806Z,4.00
2023-01-29T05:03:55.627Z,4.00
2023-01-29T05:06:26.492Z,4.00
2023-01-29T05:08:55.806Z,4.00
2023-01-29T05:11:25.888Z,3.90
2023-01-29T05:13:54.478Z,4.00
2023-01-29T05:16:26.462Z,4.00
2023-01-29T05:18:55.245Z,4.00
2023-01-29T05:21:25.590Z,4.00
2023-01-29T05:24:11.640Z,4.00
2023-01-29T05:26:57.225Z,4.00
2023-01-29T05:29:25.598Z,4.00
2023-01-29T05:31:53.689Z,4.00
2023-01-29T05:34:21.828Z,4.00
2023-01-29T05:36:51.257Z,4.00
2023-01-29T05:39:19.356Z,4.00
2023-01-29T05:41:47.333Z,4.10
2023-01-29T05:44:15.469Z,4.00
2023-01-29T05:46:44.025Z,4.10
2023-01-29T05:49:12.132Z,4.00
2023-01-29T05:51:40.265Z,4.00
2023-01-29T05:54:11.849Z,4.00
2023-01-29T05:56:39.863Z,4.10
2023-01-29T05:59:07.860Z,4.10
2023-01-29T06:01:35.927Z,4.10
2023-01-29T06:04:03.975Z,4.10
2023-01-29T06:06:32.312Z,4.10
2023-01-29T06:09:00.338Z,4.00
2023-01-29T06:11:29.699Z,4.10
2023-01-29T06:13:57.683Z,4.10
2023-01-29T06:16:25.638Z,4.00
2023-01-29T06:18:53.663Z,4.50
2023-01-29T06:21:21.623Z,4.00
2023-01-29T06:23:49.746Z,4.00
2023-01-29T06:26:17.725Z,4.00
2023-01-29T06:28:50.018Z,4.10
2023-01-29T06:31:37.717Z,4.10
2023-01-29T06:34:06.217Z,4.10
2023-01-29T06:36:34.339Z,4.10
2023-01-29T06:39:02.347Z,4.10
2023-01-29T06:41:30.359Z,4.10
2023-01-29T06:43:59.709Z,4.10
2023-01-29T06:46:27.718Z,5.00
2023-01-29T06:48:55.717Z,4.10
2023-01-29T06:51:23.736Z,4.10
2023-01-29T06:53:51.749Z,4.10
2023-01-29T06:56:19.809Z,4.10
2023-01-29T06:58:47.807Z,4.10
2023-01-29T07:01:33.332Z,4.10
2023-01-29T07:04:03.039Z,4.80
2023-01-29T07:06:31.931Z,5.10
2023-01-29T07:09:00.017Z,4.10
2023-01-29T07:11:28.115Z,4.10
2023-01-29T07:13:56.193Z,4.10
2023-01-29T07:16:26.416Z,4.10
2023-01-29T07:18:54.653Z,4.10
2023-01-29T07:21:22.675Z,4.10
2023-01-29T07:23:50.725Z,4.10
2023-01-29T07:26:18.743Z,4.20
2023-01-29T07:28:46.749Z,4.10
2023-01-29T07:31:16.074Z,4.20
2023-01-29T07:33:46.268Z,4.10
2023-01-29T07:36:15.595Z,4.50
2023-01-29T07:38:43.540Z,4.20
2023-01-29T07:41:12.744Z,4.20
2023-01-29T07:43:40.907Z,4.20
2023-01-29T07:46:09.270Z,4.20
2023-01-29T07:48:37.300Z,4.10
2023-01-29T07:51:07.172Z,4.20
2023-01-29T07:53:35.872Z,4.20
2023-01-29T07:56:04.213Z,4.20
2023-01-29T07:58:32.429Z,4.20
2023-01-29T08:01:00.760Z,5.30
2023-01-29T08:03:28.876Z,4.20
2023-01-29T08:05:58.567Z,4.20
2023-01-29T08:08:28.026Z,4.20
2023-01-29T08:10:56.033Z,4.20
2023-01-29T08:13:24.027Z,4.20
2023-01-29T08:15:52.022Z,4.20
2023-01-29T08:18:20.056Z,4.20
2023-01-29T08:20:48.087Z,4.20
2023-01-29T08:23:17.520Z,4.20
2023-01-29T08:25:46.931Z,4.20
2023-01-29T08:28:14.998Z,4.20
2023-01-29T08:30:44.163Z,4.20
2023-01-29T08:33:12.169Z,5.00
2023-01-29T08:35:41.221Z,4.20
2023-01-29T08:38:10.477Z,4.30
2023-01-29T08:40:38.503Z,4.20
2023-01-29T08:43:09.765Z,4.30
2023-01-29T08:45:39.482Z,4.30
2023-01-29T08:48:08.272Z,4.50
2023-01-29T08:50:36.435Z,5.20
2023-01-29T08:53:07.691Z,4.30
2023-01-29T08:55:37.776Z,4.30
2023-01-29T08:58:07.920Z,4.40
2023-01-29T09:00:36.482Z,4.40
2023-01-29T09:03:04.726Z,4.40
2023-01-29T09:05:32.823Z,4.40
2023-01-29T09:08:01.128Z,5.60
2023-01-29T09:10:29.188Z,4.50
2023-01-29T09:12:57.171Z,4.50
2023-01-29T09:15:26.655Z,4.50
2023-01-29T09:17:54.732Z,5.70
2023-01-29T09:20:23.240Z,4.50
2023-01-29T09:22:53.595Z,4.50
2023-01-29T09:25:21.702Z,4.60
2023-01-29T09:27:49.770Z,4.50
2023-01-29T09:30:18.909Z,4.60
2023-01-29T09:32:55.503Z,4.60
2023-01-29T09:35:23.913Z,4.60
2023-01-29T09:37:52.789Z,4.60
2023-01-29T09:40:27.048Z,4.70
2023-01-29T09:43:01.190Z,4.70
2023-01-29T09:45:30.397Z,4.70
2023-01-29T09:48:01.800Z,4.70
2023-01-29T09:50:39.812Z,4.70
2023-01-29T09:53:17.578Z,4.70
2023-01-29T09:55:50.622Z,4.70
2023-01-29T09:58:25.576Z,4.70
2023-01-29T10:01:03.207Z,5.40
2023-01-29T10:04:08.224Z,4.80
2023-01-29T10:06:50.887Z,4.80
2023-01-29T10:09:44.748Z,4.80
2023-01-29T10:12:30.868Z,4.80
2023-01-29T10:15:08.852Z,4.80
2023-01-29T10:17:52.034Z,4.80
2023-01-29T10:20:50.283Z,4.80
2023-01-29T10:23:25.333Z,4.80
2023-01-29T10:25:54.793Z,4.80
2023-01-29T10:28:29.090Z,4.90
2023-01-29T10:31:01.488Z,4.80
2023-01-29T10:33:49.264Z,4.90
2023-01-29T10:36:35.692Z,4.80
2023-01-29T10:39:03.944Z,5.80
2023-01-29T10:41:54.505Z,4.90
2023-01-29T10:44:31.699Z,4.90
2023-01-29T10:47:18.421Z,4.90
2023-01-29T10:50:18.720Z,4.90
2023-01-29T10:53:03.111Z,5.00
2023-01-29T10:55:42.926Z,4.90
2023-01-29T10:58:21.215Z,5.20
2023-01-29T11:00:49.638Z,5.60
2023-01-29T11:03:27.856Z,5.00
2023-01-29T11:06:03.988Z,5.00
2023-01-29T11:08:39.267Z,5.00
2023-01-29T11:11:12.661Z,5.10
2023-01-29T11:13:44.651Z,5.10
2023-01-29T11:16:13.222Z,5.10
2023-01-29T11:18:56.349Z,5.10
2023-01-29T11:21:25.769Z,5.10
2023-01-29T11:24:08.403Z,5.10
2023-01-29T11:26:41.155Z,5.10
2023-01-29T11:29:33.789Z,5.10
2023-01-29T11:32:04.441Z,5.20
2023-01-29T11:34:32.739Z,5.20
2023-01-29T11:37:02.156Z,6.50
2023-01-29T11:39:32.845Z,5.20
2023-01-29T11:42:03.776Z,5.20
2023-01-29T11:44:34.603Z,5.40
2023-01-29T11:47:14.250Z,5.30
2023-01-29T11:49:47.579Z,5.30
2023-01-29T11:52:19.013Z,5.30
2023-01-29T11:54:52.416Z,5.30
2023-01-29T11:57:27.767Z,5.30
2023-01-29T11:59:59.283Z,5.30
2023-01-29T12:02:32.979Z,5.40
2023-01-29T12:05:05.947Z,5.30
2023-01-29T12:07:35.042Z,5.30
2023-01-29T12:10:04.765Z,5.40
2023-01-29T12:12:39.286Z,5.40
2023-01-29T12:15:19.596Z,5.40
2023-01-29T12:18:04.423Z,5.40
2023-01-29T12:20:38.744Z,5.50
2023-01-29T12:23:23.308Z,5.50
2023-01-29T12:26:00.446Z,6.10
2023-01-29T12:28:40.609Z,5.60
2023-01-29T12:31:17.739Z,6.90
2023-01-29T12:33:55.328Z,5.70
2023-01-29T12:36:27.887Z,5.70
2023-01-29T12:38:56.658Z,5.70
2023-01-29T12:41:33.858Z,5.70
2023-01-29T12:44:07.703Z,5.70
2023-01-29T12:46:41.774Z,5.70
2023-01-29T12:49:17.073Z,6.60
2023-01-29T12:51:56.899Z,5.80
2023-01-29T12:54:34.783Z,5.70
2023-01-29T12:57:10.582Z,5.70
2023-01-29T12:59:44.424Z,5.80
2023-01-29T13:02:23.888Z,6.00
2023-01-29T13:04:58.337Z,6.50
2023-01-29T13:07:31.707Z,5.90
2023-01-29T13:10:08.643Z,5.80
2023-01-29T13:12:41.280Z,5.90
2023-01-29T13:15:22.885Z,5.90
2023-01-29T13:17:54.204Z,5.90
2023-01-29T13:20:29.798Z,5.90
2023-01-29T13:23:04.124Z,5.90
2023-01-29T13:25:32.462Z,6.00
2023-01-29T13:28:02.208Z,5.90
2023-01-29T13:30:32.332Z,6.00
2023-01-29T13:33:10.506Z,6.10
2023-01-29T13:35:42.726Z,6.00
2023-01-29T13:38:25.992Z,6.00
2023-01-29T13:40:58.225Z,6.70
2023-01-29T13:43:38.784Z,6.00
2023-01-29T13:46:10.469Z,6.00
2023-01-29T13:48:44.473Z,6.00
2023-01-29T13:51:17.807Z,6.00
2023-01-29T13:53:55.359Z,6.00
2023-01-29T13:56:47.852Z,6.00
2023-01-29T13:59:49.308Z,6.00
2023-01-29T14:02:30.297Z,6.10
2023-01-29T14:05:35.916Z,6.20
2023-01-29T14:08:07.068Z,6.00
2023-01-29T14:10:36.751Z,6.00
2023-01-29T14:13:35.267Z,6.00
2023-01-29T14:16:29.929Z,6.00
2023-01-29T14:19:01.834Z,6.00
2023-01-29T14:21:32.505Z,6.00
2023-01-29T14:24:09.640Z,5.90
2023-01-29T14:26:45.486Z,5.90
2023-01-29T14:29:32.473Z,5.90
2023-01-29T14:32:19.451Z,5.90
2023-01-29T14:34:51.231Z,5.90
2023-01-29T14:37:27.631Z,5.90
2023-01-29T14:39:58.910Z,5.90
2023-01-29T14:42:30.583Z,5.90
2023-01-29T14:45:01.585Z,5.80
2023-01-29T14:48:09.615Z,5.80
2023-01-29T14:50:49.453Z,5.90
2023-01-29T14:53:29.335Z,5.80
2023-01-29T14:56:02.707Z,5.80
2023-01-29T14:58:39.219Z,6.00
2023-01-29T15:01:17.060Z,5.80
2023-01-29T15:03:48.909Z,5.70
2023-01-29T15:06:31.643Z,5.70
2023-01-29T15:09:06.875Z,5.80
2023-01-29T15:11:41.028Z,5.70
2023-01-29T15:14:24.220Z,6.90
2023-01-29T15:17:30.278Z,5.70
2023-01-29T15:19:58.469Z,5.70
2023-01-29T15:22:30.526Z,5.70
2023-01-29T15:25:07.763Z,5.90
2023-01-29T15:27:36.123Z,5.60
2023-01-29T15:30:08.041Z,5.60
2023-01-29T15:32:38.425Z,5.60
2023-01-29T15:35:11.098Z,5.50
2023-01-29T15:37:41.458Z,5.60
2023-01-29T15:40:17.742Z,6.30
2023-01-29T15:42:48.684Z,5.50
2023-01-29T15:45:25.744Z,5.50
2023-01-29T15:47:56.352Z,5.40
2023-01-29T15:50:24.663Z,5.70
2023-01-29T15:52:55.769Z,5.50
2023-01-29T15:55:25.509Z,5.50
2023-01-29T15:57:54.151Z,5.40
2023-01-29T16:00:25.101Z,5.50
2023-01-29T16:02:54.704Z,5.40
2023-01-29T16:05:26.574Z,5.40
2023-01-29T16:07:58.017Z,5.40
2023-01-29T16:10:29.336Z,5.90
2023-01-29T16:12:58.508Z,5.50
2023-01-29T16:15:33.720Z,6.60
2023-01-29T16:18:22.402Z,5.40
2023-01-29T16:20:53.525Z,5.40
2023-01-29T16:23:27.567Z,6.40
2023-01-29T16:25:57.835Z,6.20
2023-01-29T16:28:25.897Z,6.00
2023-01-29T16:30:58.063Z,5.40
2023-01-29T16:33:34.138Z,6.60
2023-01-29T16:36:05.504Z,5.40
2023-01-29T16:38:37.132Z,5.40
2023-01-29T16:41:15.637Z,5.40
2023-01-29T16:43:51.893Z,5.40
2023-01-29T16:46:35.335Z,5.40
2023-01-29T16:49:04.034Z,5.40
2023-01-29T16:51:37.925Z,5.70
2023-01-29T16:54:17.360Z,5.40
2023-01-29T16:56:46.710Z,5.40
2023-01-29T16:59:21.342Z,5.60
2023-01-29T17:01:50.454Z,5.40
2023-01-29T17:04:19.991Z,5.40
2023-01-29T17:06:50.377Z,5.40
2023-01-29T17:09:25.523Z,5.40
2023-01-29T17:11:56.991Z,5.40
2023-01-29T17:14:25.524Z,5.70
2023-01-29T17:16:56.829Z,5.40
2023-01-29T17:19:25.928Z,5.40
2023-01-29T17:21:54.317Z,5.40
2023-01-29T17:24:23.795Z,5.60
2023-01-29T17:26:52.277Z,5.30
2023-01-29T17:29:21.963Z,5.30
2023-01-29T17:31:50.017Z,5.30
2023-01-29T17:34:18.665Z,6.40
2023-01-29T17:36:47.089Z,5.30
2023-01-29T17:39:19.052Z,5.30
2023-01-29T17:41:51.447Z,5.30
2023-01-29T17:44:19.257Z,5.30
2023-01-29T17:46:47.507Z,5.30
2023-01-29T17:49:25.585Z,5.30
2023-01-29T17:51:54.913Z,5.30
2023-01-29T17:54:24.119Z,5.30
2023-01-29T17:56:54.544Z,5.30
2023-01-29T17:59:24.094Z,5.20
2023-01-29T18:01:53.261Z,5.30
2023-01-29T18:04:21.394Z,5.30
2023-01-29T18:06:51.325Z,5.30
2023-01-29T18:09:21.349Z,5.30
2023-01-29T18:11:50.725Z,5.30
2023-01-29T18:14:20.183Z,5.30
2023-01-29T18:16:48.209Z,5.30
2023-01-29T18:19:21.733Z,5.20
2023-01-29T18:21:50.407Z,5.30
2023-01-29T18:24:20.402Z,5.30
2023-01-29T18:26:48.984Z,5.30
2023-01-29T18:29:17.123Z,5.30
2023-01-29T18:31:49.420Z,5.30
2023-01-29T18:34:17.361Z,5.30
2023-01-29T18:36:47.690Z,5.30
2023-01-29T18:39:15.951Z,5.30
2023-01-29T18:41:44.042Z,5.30
2023-01-29T18:44:12.489Z,5.30
2023-01-29T18:46:40.464Z,5.30
2023-01-29T18:49:10.756Z,5.30
2023-01-29T18:51:38.785Z,5.30
2023-01-29T18:54:06.891Z,6.50
2023-01-29T18:56:34.883Z,5.30
2023-01-29T18:59:05.661Z,6.60
2023-01-29T19:01:34.761Z,5.30
2023-01-29T19:04:03.932Z,5.30
2023-01-29T19:06:39.879Z,5.40
2023-01-29T19:09:07.964Z,5.40
2023-01-29T19:11:35.967Z,4.00
2023-01-29T19:14:03.996Z,6.30
2023-01-29T19:16:31.970Z,6.20
2023-01-29T19:19:00.007Z,5.40
2023-01-29T19:21:28.449Z,6.30
2023-01-29T19:23:58.000Z,5.40
2023-01-29T19:26:27.169Z,5.40
2023-01-29T19:28:55.246Z,5.40
2023-01-29T19:31:23.246Z,5.40
2023-01-29T19:33:51.251Z,6.00
2023-01-29T19:36:19.453Z,5.40
2023-01-29T19:38:49.022Z,5.40
2023-01-29T19:41:18.424Z,5.40
2023-01-29T19:43:48.185Z,5.40
2023-01-29T19:46:16.358Z,5.40
2023-01-29T19:48:44.438Z,5.50
2023-01-29T19:51:13.050Z,5.40
2023-01-29T19:53:44.870Z,5.50
2023-01-29T19:56:15.365Z,5.50
2023-01-29T19:58:44.850Z,5.50
2023-01-29T20:01:16.325Z,6.30
2023-01-29T20:03:46.492Z,5.60
2023-01-29T20:06:16.798Z,5.60
2023-01-29T20:08:46.550Z,5.60
2023-01-29T20:11:14.662Z,6.00
2023-01-29T20:13:44.556Z,5.70
2023-01-29T20:16:12.647Z,5.70
2023-01-29T20:18:40.698Z,5.70
2023-01-29T20:21:10.476Z,5.80
2023-01-29T20:23:39.812Z,5.80
2023-01-29T20:26:11.222Z,6.40
2023-01-29T20:28:39.659Z,6.30
2023-01-29T20:31:10.190Z,5.90
2023-01-29T20:33:39.599Z,5.90
2023-01-29T20:36:10.039Z,5.90
2023-01-29T20:38:38.097Z,5.90
2023-01-29T20:41:07.646Z,6.50
2023-01-29T20:43:36.084Z,6.40
2023-01-29T20:46:05.049Z,6.00
2023-01-29T20:48:34.703Z,6.00
2023-01-29T20:51:08.028Z,6.00
2023-01-29T20:53:36.876Z,6.00
2023-01-29T20:56:05.477Z,6.00
2023-01-29T20:58:33.641Z,6.00
2023-01-29T21:01:01.881Z,6.00
2023-01-29T21:03:29.899Z,6.00
2023-01-29T21:06:00.139Z,6.10
2023-01-29T21:08:28.147Z,6.10
2023-01-29T21:10:56.127Z,6.10
2023-01-29T21:13:24.119Z,6.10
2023-01-29T21:15:52.342Z,6.10
2023-01-29T21:18:20.354Z,6.10
2023-01-29T21:20:50.599Z,6.80
2023-01-29T21:23:20.345Z,7.00
2023-01-29T21:25:48.510Z,6.30
2023-01-29T21:28:16.912Z,6.40
2023-01-29T21:30:44.919Z,6.70
2023-01-29T21:33:13.030Z,6.60
2023-01-29T21:35:41.043Z,6.70
2023-01-29T21:38:09.303Z,6.70
2023-01-29T21:40:38.753Z,6.80
2023-01-29T21:43:11.489Z,6.80
2023-01-29T21:45:40.462Z,6.80
2023-01-29T21:48:08.526Z,6.90
2023-01-29T21:50:36.902Z,7.00
2023-01-29T21:53:05.128Z,6.90
2023-01-29T21:55:33.594Z,7.00
2023-01-29T21:58:04.271Z,7.00
2023-01-29T22:00:32.383Z,7.40
2023-01-29T22:03:00.592Z,7.00
2023-01-29T22:05:29.287Z,7.00
2023-01-29T22:07:57.337Z,7.80
2023-01-29T22:10:25.783Z,7.30
2023-01-29T22:12:54.209Z,7.00
2023-01-29T22:15:24.453Z,7.70
2023-01-29T22:17:52.557Z,8.30
2023-01-29T22:20:21.111Z,7.10
2023-01-29T22:22:49.374Z,7.20
2023-01-29T22:25:20.075Z,7.20
2023-01-29T22:27:48.167Z,7.20
2023-01-29T22:30:16.843Z,7.30
2023-01-29T22:32:46.485Z,7.20
2023-01-29T22:35:14.581Z,7.30
2023-01-29T22:37:42.599Z,7.40
2023-01-29T22:40:11.558Z,8.30
2023-01-29T22:42:39.555Z,7.40
2023-01-29T22:45:09.127Z,7.80
2023-01-29T22:47:37.206Z,7.40
2023-01-29T22:50:07.987Z,7.40
2023-01-29T22:52:39.393Z,7.50
2023-01-29T22:55:09.827Z,7.40
2023-01-29T22:57:38.323Z,7.50
2023-01-29T23:00:09.087Z,8.20
2023-01-29T23:02:37.437Z,7.60
2023-01-29T23:05:08.050Z,7.60
2023-01-29T23:07:36.242Z,7.70
2023-01-29T23:10:04.470Z,7.70
2023-01-29T23:12:32.550Z,7.70
2023-01-29T23:15:00.635Z,7.80
2023-01-29T23:17:28.696Z,7.80
2023-01-29T23:19:56.690Z,7.70
2023-01-29T23:22:26.561Z,7.80
2023-01-29T23:24:54.675Z,7.90
2023-01-29T23:27:21.713Z,7.80
2023-01-29T23:29:50.313Z,7.90
2023-01-29T23:32:21.451Z,8.30
2023-01-29T23:34:49.576Z,7.80
2023-01-29T23:37:17.662Z,7.90
2023-01-29T23:39:47.054Z,8.60
2023-01-29T23:42:15.073Z,7.80
2023-01-29T23:44:43.229Z,7.80
2023-01-29T23:47:11.638Z,7.80
2023-01-29T23:49:39.669Z,7.80
2023-01-29T23:52:07.778Z,8.30
2023-01-29T23:54:35.791Z,8.00
2023-01-29T23:57:05.306Z,8.10
2023-01-29T23:59:33.360Z,7.90
